Time,TemperatureF,DewpointF,PressureIn,WindDirection,WindDirectionDegrees,WindSpeedMPH,WindSpeedGustMPH,Humidity,HourlyPrecipIn,Conditions,Clouds,dailyrainin,SoftwareType,DateUTC
2013-12-19 00:07:00,35.7,34.4,30.23,SSE,156,0.0,0.0,95,0.00,,,0.00,Wunderground v.1.15,2013-12-19 06:07:00,
2013-12-19 00:12:00,35.5,34.2,30.23,SSE,156,0.0,0.0,95,0.00,,,0.00,Wunderground v.1.15,2013-12-19 06:12:00,
2013-12-19 00:22:00,35.2,33.9,30.23,SSE,156,0.0,0.0,95,0.00,,,0.00,Wunderground v.1.15,2013-12-19 06:22:00,
2013-12-19 00:33:00,35.2,33.9,30.22,SSE,156,0.0,0.0,95,0.00,,,0.00,Wunderground v.1.15,2013-12-19 06:33:00,
2013-12-19 00:38:00,35.0,33.7,30.22,SSE,155,0.0,0.0,95,0.00,,,0.00,Wunderground v.1.15,2013-12-19 06:38:00,
2013-12-19 00:43:00,34.9,33.6,30.22,SSE,155,0.0,0.0,95,0.00,,,0.00,Wunderground v.1.15,2013-12-19 06:43:00,
2013-12-19 00:48:00,34.8,33.5,30.22,SSE,155,0.0,0.0,95,0.00,,,0.00,Wunderground v.1.15,2013-12-19 06:48:00,
2013-12-19 00:53:00,34.9,33.6,30.21,SSE,155,0.0,0.0,95,0.00,,,0.00,Wunderground v.1.15,2013-12-19 06:53:00,
2013-12-19 01:03:00,34.8,33.5,30.21,SSE,155,0.0,0.0,95,0.00,,,0.00,Wunderground v.1.15,2013-12-19 07:03:00,
2013-12-19 01:13:00,34.8,33.5,30.21,SSE,155,0.0,0.0,95,0.00,,,0.00,Wunderground v.1.15,2013-12-19 07:13:00,
2013-12-19 01:22:00,34.8,33.8,30.21,SSE,155,0.0,0.0,96,0.00,,,0.00,Wunderground v.1.15,2013-12-19 07:22:00,
2013-12-19 01:33:00,34.7,33.4,30.22,SSE,155,0.0,0.0,95,0.00,,,0.00,Wunderground v.1.15,2013-12-19 07:33:00,
2013-12-19 01:43:00,34.5,33.2,30.21,SSE,155,0.0,0.0,95,0.00,,,0.00,Wunderground v.1.15,2013-12-19 07:43:00,
2013-12-19 01:53:00,34.5,33.5,30.21,SSE,155,0.0,0.0,96,0.00,,,0.00,Wunderground v.1.15,2013-12-19 07:53:00,
2013-12-19 02:02:00,34.4,33.4,30.21,SSE,155,0.0,0.0,96,0.00,,,0.00,Wunderground v.1.15,2013-12-19 08:02:00,
2013-12-19 02:12:00,34.3,33.3,30.21,SSE,155,0.0,0.0,96,0.00,,,0.00,Wunderground v.1.15,2013-12-19 08:12:00,
2013-12-19 02:17:00,34.3,33.3,30.21,SSE,155,0.0,0.0,96,0.00,,,0.00,Wunderground v.1.15,2013-12-19 08:17:00,
2013-12-19 02:22:00,34.3,33.3,30.21,SSE,155,0.0,0.0,96,0.00,,,0.00,Wunderground v.1.15,2013-12-19 08:22:00,
2013-12-19 02:27:00,34.3,33.3,30.21,SSE,155,0.0,0.0,96,0.00,,,0.00,Wunderground v.1.15,2013-12-19 08:27:00,
2013-12-19 02:37:00,34.1,33.1,30.21,SSE,155,0.0,0.0,96,0.00,,,0.00,Wunderground v.1.15,2013-12-19 08:37:00,
2013-12-19 02:47:00,34.1,33.1,30.21,SSE,155,0.0,0.0,96,0.00,,,0.00,Wunderground v.1.15,2013-12-19 08:47:00,
2013-12-19 02:52:00,34.0,33.0,30.21,SSE,155,0.0,0.0,96,0.00,,,0.00,Wunderground v.1.15,2013-12-19 08:52:00,
2013-12-19 02:57:00,33.9,32.9,30.21,SSE,155,0.0,0.0,96,0.00,,,0.00,Wunderground v.1.15,2013-12-19 08:57:00,
2013-12-19 03:02:00,33.9,32.9,30.21,SSE,155,0.0,0.0,96,0.00,,,0.00,Wunderground v.1.15,2013-12-19 09:02:00,
2013-12-19 03:12:00,33.8,32.8,30.21,East,79,0.0,0.0,96,0.00,,,0.00,Wunderground v.1.15,2013-12-19 09:12:00,
2013-12-19 03:17:00,33.9,32.9,30.21,East,79,0.0,0.0,96,0.00,,,0.00,Wunderground v.1.15,2013-12-19 09:17:00,
2013-12-19 03:22:00,34.0,33.0,30.21,East,79,0.0,0.0,96,0.00,,,0.00,Wunderground v.1.15,2013-12-19 09:22:00,
2013-12-19 03:32:00,33.7,32.7,30.21,East,79,0.0,0.0,96,0.00,,,0.00,Wunderground v.1.15,2013-12-19 09:32:00,
2013-12-19 03:37:00,33.6,32.6,30.21,East,79,0.0,0.0,96,0.00,,,0.00,Wunderground v.1.15,2013-12-19 09:37:00,
2013-12-19 03:42:00,33.7,32.7,30.21,East,79,0.0,0.0,96,0.00,,,0.00,Wunderground v.1.15,2013-12-19 09:42:00,
2013-12-19 03:47:00,33.5,32.5,30.21,East,79,0.0,0.0,96,0.00,,,0.00,Wunderground v.1.15,2013-12-19 09:47:00,
2013-12-19 03:57:00,33.6,32.6,30.21,East,79,0.0,0.0,96,0.00,,,0.00,Wunderground v.1.15,2013-12-19 09:57:00,
2013-12-19 04:02:00,33.6,32.6,30.21,East,79,0.0,0.0,96,0.00,,,0.00,Wunderground v.1.15,2013-12-19 10:02:00,
2013-12-19 04:08:00,33.6,32.6,30.21,East,79,0.0,0.0,96,0.00,,,0.00,Wunderground v.1.15,2013-12-19 10:08:00,
2013-12-19 04:17:00,33.5,32.5,30.21,East,79,0.0,0.0,96,0.00,,,0.00,Wunderground v.1.15,2013-12-19 10:17:00,
2013-12-19 04:22:00,33.6,32.6,30.21,East,79,0.0,0.0,96,0.00,,,0.00,Wunderground v.1.15,2013-12-19 10:22:00,
2013-12-19 04:32:00,33.5,32.5,30.20,East,79,0.0,0.0,96,0.00,,,0.00,Wunderground v.1.15,2013-12-19 10:32:00,
2013-12-19 04:42:00,33.8,32.8,30.20,East,79,0.0,0.0,96,0.00,,,0.00,Wunderground v.1.15,2013-12-19 10:42:00,
2013-12-19 04:52:00,35.9,35.1,30.20,East,79,0.0,0.0,97,0.00,,,0.00,Wunderground v.1.15,2013-12-19 10:52:00,
2013-12-19 04:57:00,36.3,35.5,30.20,East,79,0.0,0.0,97,0.00,,,0.00,Wunderground v.1.15,2013-12-19 10:57:00,
2013-12-19 05:02:00,37.1,36.3,30.20,East,79,0.0,0.0,97,0.00,,,0.00,Wunderground v.1.15,2013-12-19 11:02:00,
2013-12-19 05:07:00,38.4,37.6,30.20,East,79,0.0,0.0,97,0.00,,,0.00,Wunderground v.1.15,2013-12-19 11:07:00,
2013-12-19 05:17:00,39.5,38.7,30.20,East,79,0.0,0.0,97,0.00,,,0.00,Wunderground v.1.15,2013-12-19 11:17:00,
2013-12-19 05:22:00,39.9,39.1,30.20,East,79,0.0,0.0,97,0.00,,,0.00,Wunderground v.1.15,2013-12-19 11:22:00,
2013-12-19 05:27:00,40.0,39.2,30.20,East,79,0.0,0.0,97,0.00,,,0.00,Wunderground v.1.15,2013-12-19 11:27:00,
2013-12-19 05:33:00,40.0,39.2,30.20,East,79,0.0,0.0,97,0.00,,,0.00,Wunderground v.1.15,2013-12-19 11:33:00,
2013-12-19 05:38:00,40.2,39.4,30.21,East,79,0.0,0.0,97,0.00,,,0.00,Wunderground v.1.15,2013-12-19 11:38:00,
2013-12-19 05:47:00,39.7,38.9,30.21,East,79,0.0,0.0,97,0.00,,,0.00,Wunderground v.1.15,2013-12-19 11:47:00,
2013-12-19 05:57:00,39.8,39.0,30.21,NE,53,0.0,0.0,97,0.00,,,0.00,Wunderground v.1.15,2013-12-19 11:57:00,
2013-12-19 06:02:00,39.2,38.4,30.21,NE,53,0.0,0.0,97,0.00,,,0.00,Wunderground v.1.15,2013-12-19 12:02:00,
2013-12-19 06:07:00,39.3,38.5,30.21,NE,53,0.0,0.0,97,0.00,,,0.00,Wunderground v.1.15,2013-12-19 12:07:00,
2013-12-19 06:18:00,39.4,38.6,30.21,NE,54,0.0,0.0,97,0.00,,,0.00,Wunderground v.1.15,2013-12-19 12:18:00,
2013-12-19 06:27:00,39.8,39.0,30.21,NE,53,0.0,1.0,97,0.00,,,0.00,Wunderground v.1.15,2013-12-19 12:27:00,
2013-12-19 06:33:00,40.0,39.2,30.21,NE,53,1.0,1.0,97,0.00,,,0.00,Wunderground v.1.15,2013-12-19 12:33:00,
2013-12-19 06:38:00,39.5,38.7,30.21,North,10,1.0,1.0,97,0.00,,,0.00,Wunderground v.1.15,2013-12-19 12:38:00,
2013-12-19 06:48:00,40.4,39.6,30.21,North,10,1.0,1.0,97,0.00,,,0.00,Wunderground v.1.15,2013-12-19 12:48:00,
2013-12-19 06:58:00,40.5,39.7,30.22,North,10,0.0,0.0,97,0.00,,,0.00,Wunderground v.1.15,2013-12-19 12:58:00,
2013-12-19 07:03:00,41.0,40.2,30.22,North,10,0.0,0.0,97,0.00,,,0.00,Wunderground v.1.15,2013-12-19 13:03:00,
2013-12-19 07:12:00,41.3,40.5,30.22,North,10,0.0,0.0,97,0.00,,,0.00,Wunderground v.1.15,2013-12-19 13:12:00,
2013-12-19 07:22:00,41.7,40.9,30.22,North,10,0.0,0.0,97,0.00,,,0.00,Wunderground v.1.15,2013-12-19 13:22:00,
2013-12-19 07:32:00,42.1,41.3,30.22,North,10,0.0,0.0,97,0.00,,,0.00,Wunderground v.1.15,2013-12-19 13:32:00,
2013-12-19 07:37:00,42.4,41.6,30.22,North,10,0.0,0.0,97,0.00,,,0.00,Wunderground v.1.15,2013-12-19 13:37:00,
2013-12-19 07:47:00,43.2,42.4,30.22,NNE,21,0.0,0.0,97,0.00,,,0.00,Wunderground v.1.15,2013-12-19 13:47:00,
2013-12-19 07:57:00,44.3,43.5,30.22,NNE,21,0.0,0.0,97,0.00,,,0.00,Wunderground v.1.15,2013-12-19 13:57:00,
2013-12-19 08:07:00,45.2,44.4,30.22,NNE,21,0.0,0.0,97,0.00,,,0.00,Wunderground v.1.15,2013-12-19 14:07:00,
2013-12-19 08:12:00,45.9,45.1,30.22,NNE,19,0.0,0.0,97,0.00,,,0.00,Wunderground v.1.15,2013-12-19 14:12:00,
2013-12-19 08:22:00,47.2,46.1,30.22,NNE,15,0.0,0.0,96,0.00,,,0.00,Wunderground v.1.15,2013-12-19 14:22:00,
2013-12-19 08:27:00,47.7,46.6,30.22,NNE,15,0.0,0.0,96,0.00,,,0.00,Wunderground v.1.15,2013-12-19 14:27:00,
2013-12-19 08:37:00,49.1,47.7,30.22,NNE,26,0.0,0.0,95,0.00,,,0.00,Wunderground v.1.15,2013-12-19 14:37:00,
2013-12-19 08:47:00,50.7,49.0,30.22,NE,45,0.0,0.0,94,0.00,,,0.00,Wunderground v.1.15,2013-12-19 14:47:00,
2013-12-19 08:52:00,51.4,49.4,30.23,NE,46,0.0,0.0,93,0.00,,,0.00,Wunderground v.1.15,2013-12-19 14:52:00,
2013-12-19 09:02:00,52.6,50.6,30.23,East,84,0.0,0.0,93,0.00,,,0.00,Wunderground v.1.15,2013-12-19 15:02:00,
2013-12-19 09:07:00,53.1,50.5,30.23,ENE,76,0.0,0.0,91,0.00,,,0.00,Wunderground v.1.15,2013-12-19 15:07:00,
2013-12-19 09:12:00,53.7,50.8,30.23,ESE,107,0.0,1.0,90,0.00,,,0.00,Wunderground v.1.15,2013-12-19 15:12:00,
2013-12-19 09:22:00,54.7,51.5,30.23,East,93,0.0,0.0,89,0.00,,,0.00,Wunderground v.1.15,2013-12-19 15:22:00,
2013-12-19 09:32:00,56.3,52.5,30.22,ENE,57,0.0,0.0,87,0.00,,,0.00,Wunderground v.1.15,2013-12-19 15:32:00,
2013-12-19 09:37:00,57.1,53.0,30.22,East,98,0.0,1.0,86,0.00,,,0.00,Wunderground v.1.15,2013-12-19 15:37:00,
2013-12-19 09:47:00,58.9,53.4,30.22,SE,124,2.0,2.0,82,0.00,,,0.00,Wunderground v.1.15,2013-12-19 15:47:00,
2013-12-19 09:52:00,59.8,54.0,30.21,East,84,1.0,1.0,81,0.00,,,0.00,Wunderground v.1.15,2013-12-19 15:52:00,
2013-12-19 09:57:00,60.5,54.3,30.21,East,87,1.0,2.0,80,0.00,,,0.00,Wunderground v.1.15,2013-12-19 15:57:00,
2013-12-19 10:07:00,62.5,55.2,30.21,NNE,14,1.0,1.0,77,0.00,,,0.00,Wunderground v.1.15,2013-12-19 16:07:00,
2013-12-19 10:12:00,63.3,56.0,30.21,ENE,59,1.0,1.0,77,0.00,,,0.00,Wunderground v.1.15,2013-12-19 16:12:00,
2013-12-19 10:17:00,64.1,56.0,30.21,East,92,0.0,1.0,75,0.00,,,0.00,Wunderground v.1.15,2013-12-19 16:17:00,
2013-12-19 10:27:00,65.6,56.3,30.21,SE,137,1.0,2.0,72,0.00,,,0.00,Wunderground v.1.15,2013-12-19 16:27:00,
2013-12-19 10:32:00,65.9,56.2,30.21,SE,138,1.0,1.0,71,0.00,,,0.00,Wunderground v.1.15,2013-12-19 16:32:00,
2013-12-19 10:37:00,66.0,56.7,30.21,ESE,103,1.0,1.0,72,0.00,,,0.00,Wunderground v.1.15,2013-12-19 16:37:00,
2013-12-19 10:42:00,66.3,56.2,30.21,ESE,111,1.0,1.0,70,0.00,,,0.00,Wunderground v.1.15,2013-12-19 16:42:00,
2013-12-19 10:52:00,66.8,56.7,30.20,WSW,258,1.0,1.0,70,0.00,,,0.00,Wunderground v.1.15,2013-12-19 16:52:00,
2013-12-19 10:57:00,67.0,56.9,30.20,South,190,1.0,1.0,70,0.00,,,0.00,Wunderground v.1.15,2013-12-19 16:57:00,
2013-12-19 11:07:00,68.0,57.4,30.20,SSE,168,1.0,2.0,69,0.00,,,0.00,Wunderground v.1.15,2013-12-19 17:07:00,
2013-12-19 11:12:00,68.5,57.9,30.20,SSW,203,2.0,2.0,69,0.00,,,0.00,Wunderground v.1.15,2013-12-19 17:12:00,
2013-12-19 11:17:00,68.4,57.4,30.19,ESE,107,2.0,2.0,68,0.00,,,0.00,Wunderground v.1.15,2013-12-19 17:17:00,
2013-12-19 11:22:00,68.4,57.0,30.19,ESE,122,2.0,2.0,67,0.00,,,0.00,Wunderground v.1.15,2013-12-19 17:22:00,
2013-12-19 11:32:00,69.2,58.2,30.18,SSE,164,2.0,2.0,68,0.00,,,0.00,Wunderground v.1.15,2013-12-19 17:32:00,
2013-12-19 11:37:00,69.5,58.1,30.18,South,188,1.0,2.0,67,0.00,,,0.00,Wunderground v.1.15,2013-12-19 17:37:00,
2013-12-19 11:42:00,69.4,58.0,30.18,SSW,202,1.0,1.0,67,0.00,,,0.00,Wunderground v.1.15,2013-12-19 17:42:00,
2013-12-19 11:47:00,69.5,58.5,30.17,SW,230,1.0,3.0,68,0.00,,,0.00,Wunderground v.1.15,2013-12-19 17:47:00,
2013-12-19 11:57:00,69.6,58.2,30.17,SSW,211,2.0,2.0,67,0.00,,,0.00,Wunderground v.1.15,2013-12-19 17:57:00,
2013-12-19 12:02:00,69.8,57.9,30.17,SSE,161,2.0,2.0,66,0.00,,,0.00,Wunderground v.1.15,2013-12-19 18:02:00,
2013-12-19 12:07:00,70.0,58.5,30.17,WSW,245,2.0,3.0,67,0.00,,,0.00,Wunderground v.1.15,2013-12-19 18:07:00,
2013-12-19 12:12:00,69.9,58.4,30.16,SW,233,2.0,2.0,67,0.00,,,0.00,Wunderground v.1.15,2013-12-19 18:12:00,
2013-12-19 12:17:00,69.6,58.2,30.16,East,101,2.0,2.0,67,0.00,,,0.00,Wunderground v.1.15,2013-12-19 18:17:00,
2013-12-19 12:27:00,70.0,58.5,30.15,SE,145,2.0,2.0,67,0.00,,,0.00,Wunderground v.1.15,2013-12-19 18:27:00,
2013-12-19 12:33:00,70.0,57.7,30.15,ESE,119,3.0,3.0,65,0.00,,,0.00,Wunderground v.1.15,2013-12-19 18:33:00,
2013-12-19 12:38:00,70.0,58.1,30.15,South,191,3.0,3.0,66,0.00,,,0.00,Wunderground v.1.15,2013-12-19 18:38:00,
2013-12-19 12:43:00,69.9,58.0,30.14,SSE,150,2.0,3.0,66,0.00,,,0.00,Wunderground v.1.15,2013-12-19 18:43:00,
2013-12-19 12:53:00,69.7,58.3,30.14,SW,223,2.0,2.0,67,0.00,,,0.00,Wunderground v.1.15,2013-12-19 18:53:00,
2013-12-19 12:58:00,69.6,57.7,30.13,SSW,192,2.0,2.0,66,0.00,,,0.00,Wunderground v.1.15,2013-12-19 18:58:00,
2013-12-19 13:03:00,69.5,57.6,30.13,SSW,192,2.0,2.0,66,0.00,,,0.00,Wunderground v.1.15,2013-12-19 19:03:00,
2013-12-19 13:12:00,70.1,58.2,30.13,ESE,111,1.0,2.0,66,0.00,,,0.00,Wunderground v.1.15,2013-12-19 19:12:00,
2013-12-19 13:17:00,70.3,58.0,30.12,SSE,164,2.0,2.0,65,0.00,,,0.00,Wunderground v.1.15,2013-12-19 19:17:00,
2013-12-19 13:27:00,70.8,58.4,30.12,East,91,1.0,2.0,65,0.00,,,0.00,Wunderground v.1.15,2013-12-19 19:27:00,
2013-12-19 13:32:00,70.8,58.4,30.12,SSW,204,1.0,1.0,65,0.00,,,0.00,Wunderground v.1.15,2013-12-19 19:32:00,
2013-12-19 13:43:00,70.6,58.7,30.11,SE,128,1.0,1.0,66,0.00,,,0.00,Wunderground v.1.15,2013-12-19 19:43:00,
2013-12-19 13:53:00,70.8,58.9,30.11,SE,128,1.0,2.0,66,0.00,,,0.00,Wunderground v.1.15,2013-12-19 19:53:00,
2013-12-19 13:57:00,70.2,58.3,30.11,SSE,160,1.0,2.0,66,0.00,,,0.00,Wunderground v.1.15,2013-12-19 19:57:00,
2013-12-19 14:07:00,69.7,58.3,30.11,ESE,113,1.0,2.0,67,0.00,,,0.00,Wunderground v.1.15,2013-12-19 20:07:00,
2013-12-19 14:17:00,70.0,58.1,30.11,SSW,198,2.0,2.0,66,0.00,,,0.00,Wunderground v.1.15,2013-12-19 20:17:00,
2013-12-19 14:22:00,70.1,58.6,30.11,SSW,194,1.0,1.0,67,0.00,,,0.00,Wunderground v.1.15,2013-12-19 20:22:00,
2013-12-19 14:27:00,70.1,58.2,30.11,SSW,210,1.0,1.0,66,0.00,,,0.00,Wunderground v.1.15,2013-12-19 20:27:00,
2013-12-19 14:32:00,69.9,58.4,30.11,SE,142,2.0,3.0,67,0.00,,,0.00,Wunderground v.1.15,2013-12-19 20:32:00,
2013-12-19 14:37:00,70.0,58.5,30.10,SSE,148,1.0,3.0,67,0.00,,,0.00,Wunderground v.1.15,2013-12-19 20:37:00,
2013-12-19 14:47:00,69.7,57.8,30.10,ESE,105,1.0,1.0,66,0.00,,,0.00,Wunderground v.1.15,2013-12-19 20:47:00,
2013-12-19 14:57:00,69.6,58.2,30.10,South,176,2.0,2.0,67,0.00,,,0.00,Wunderground v.1.15,2013-12-19 20:57:00,
2013-12-19 15:02:00,69.5,57.6,30.10,SE,128,1.0,3.0,66,0.00,,,0.00,Wunderground v.1.15,2013-12-19 21:02:00,
2013-12-19 15:07:00,69.3,58.3,30.10,SSE,157,1.0,3.0,68,0.00,,,0.00,Wunderground v.1.15,2013-12-19 21:07:00,
2013-12-19 15:17:00,68.8,57.8,30.10,SSW,213,2.0,3.0,68,0.00,,,0.00,Wunderground v.1.15,2013-12-19 21:17:00,
2013-12-19 15:27:00,68.4,57.4,30.10,SW,227,1.0,2.0,68,0.00,,,0.00,Wunderground v.1.15,2013-12-19 21:27:00,
2013-12-19 15:32:00,68.3,57.7,30.10,SE,138,1.0,3.0,69,0.00,,,0.00,Wunderground v.1.15,2013-12-19 21:32:00,
2013-12-19 15:42:00,68.0,57.4,30.11,SSE,168,1.0,2.0,69,0.00,,,0.00,Wunderground v.1.15,2013-12-19 21:42:00,
2013-12-19 15:52:00,67.9,57.8,30.11,SSE,151,1.0,2.0,70,0.00,,,0.00,Wunderground v.1.15,2013-12-19 21:52:00,
2013-12-19 15:57:00,67.8,58.1,30.11,South,177,0.0,2.0,71,0.00,,,0.00,Wunderground v.1.15,2013-12-19 21:57:00,
2013-12-19 16:02:00,67.7,58.0,30.11,SSW,197,0.0,1.0,71,0.00,,,0.00,Wunderground v.1.15,2013-12-19 22:02:00,
2013-12-19 16:12:00,67.2,57.9,30.11,ESE,106,0.0,0.0,72,0.00,,,0.00,Wunderground v.1.15,2013-12-19 22:12:00,
2013-12-19 16:17:00,67.0,58.1,30.11,SE,128,0.0,2.0,73,0.00,,,0.00,Wunderground v.1.15,2013-12-19 22:17:00,
2013-12-19 16:22:00,66.8,57.9,30.11,SE,134,1.0,1.0,73,0.00,,,0.00,Wunderground v.1.15,2013-12-19 22:22:00,
2013-12-19 16:28:00,66.6,58.1,30.11,SE,141,0.0,1.0,74,0.00,,,0.00,Wunderground v.1.15,2013-12-19 22:28:00,
2013-12-19 16:33:00,66.5,58.0,30.11,East,99,0.0,0.0,74,0.00,,,0.00,Wunderground v.1.15,2013-12-19 22:33:00,
2013-12-19 16:42:00,66.1,57.9,30.10,ESE,122,0.0,0.0,75,0.00,,,0.00,Wunderground v.1.15,2013-12-19 22:42:00,
2013-12-19 16:52:00,65.5,57.7,30.10,SE,128,0.0,1.0,76,0.00,,,0.00,Wunderground v.1.15,2013-12-19 22:52:00,
2013-12-19 17:02:00,65.0,58.0,30.10,SE,135,0.0,0.0,78,0.00,,,0.00,Wunderground v.1.15,2013-12-19 23:02:00,
2013-12-19 17:12:00,64.5,57.8,30.10,ESE,107,0.0,0.0,79,0.00,,,0.00,Wunderground v.1.15,2013-12-19 23:12:00,
2013-12-19 17:22:00,64.1,57.8,30.10,SE,132,0.0,0.0,80,0.00,,,0.00,Wunderground v.1.15,2013-12-19 23:22:00,
2013-12-19 17:28:00,64.0,57.7,30.10,SE,136,0.0,0.0,80,0.00,,,0.00,Wunderground v.1.15,2013-12-19 23:28:00,
2013-12-19 17:33:00,63.8,57.9,30.10,ESE,123,0.0,0.0,81,0.00,,,0.00,Wunderground v.1.15,2013-12-19 23:33:00,
2013-12-19 17:38:00,63.7,57.8,30.10,SE,140,0.0,0.0,81,0.00,,,0.00,Wunderground v.1.15,2013-12-19 23:38:00,
2013-12-19 17:48:00,63.2,57.6,30.10,ESE,112,0.0,0.0,82,0.00,,,0.00,Wunderground v.1.15,2013-12-19 23:48:00,
2013-12-19 17:57:00,62.8,57.6,30.10,ENE,59,0.0,1.0,83,0.00,,,0.00,Wunderground v.1.15,2013-12-19 23:57:00,
2013-12-19 18:02:00,62.7,57.5,30.10,ENE,59,0.0,0.0,83,0.00,,,0.00,Wunderground v.1.15,2013-12-20 00:02:00,
2013-12-19 18:08:00,62.4,57.2,30.10,SE,141,0.0,0.0,83,0.00,,,0.00,Wunderground v.1.15,2013-12-20 00:08:00,
2013-12-19 18:18:00,62.2,57.6,30.10,ESE,106,0.0,0.0,85,0.00,,,0.00,Wunderground v.1.15,2013-12-20 00:18:00,
2013-12-19 18:28:00,61.9,57.3,30.10,SE,138,0.0,0.0,85,0.00,,,0.00,Wunderground v.1.15,2013-12-20 00:28:00,
2013-12-19 18:38:00,61.6,57.4,30.10,ESE,122,0.0,1.0,86,0.00,,,0.00,Wunderground v.1.15,2013-12-20 00:38:00,
2013-12-19 18:43:00,61.5,57.6,30.10,SE,133,0.0,1.0,87,0.00,,,0.00,Wunderground v.1.15,2013-12-20 00:43:00,
2013-12-19 18:53:00,61.4,57.5,30.10,SE,142,0.0,0.0,87,0.00,,,0.00,Wunderground v.1.15,2013-12-20 00:53:00,
2013-12-19 19:02:00,61.2,57.6,30.10,ESE,112,0.0,0.0,88,0.00,,,0.00,Wunderground v.1.15,2013-12-20 01:02:00,
2013-12-19 19:08:00,61.1,57.5,30.11,ESE,112,0.0,0.0,88,0.00,,,0.00,Wunderground v.1.15,2013-12-20 01:08:00,
2013-12-19 19:13:00,61.0,57.4,30.11,East,99,0.0,0.0,88,0.00,,,0.00,Wunderground v.1.15,2013-12-20 01:13:00,
2013-12-19 19:23:00,60.7,57.4,30.11,East,86,0.0,0.0,89,0.00,,,0.00,Wunderground v.1.15,2013-12-20 01:23:00,
2013-12-19 19:32:00,60.4,57.5,30.10,East,96,0.0,0.0,90,0.00,,,0.00,Wunderground v.1.15,2013-12-20 01:32:00,
2013-12-19 19:37:00,60.3,57.4,30.10,ESE,123,0.0,1.0,90,0.00,,,0.00,Wunderground v.1.15,2013-12-20 01:37:00,
2013-12-19 19:42:00,60.3,57.4,30.10,SSE,147,0.0,0.0,90,0.00,,,0.00,Wunderground v.1.15,2013-12-20 01:42:00,
2013-12-19 19:47:00,60.3,57.4,30.10,East,94,0.0,0.0,90,0.00,,,0.00,Wunderground v.1.15,2013-12-20 01:47:00,
2013-12-19 19:57:00,60.2,57.3,30.10,East,81,0.0,0.0,90,0.00,,,0.00,Wunderground v.1.15,2013-12-20 01:57:00,
2013-12-19 20:02:00,60.1,57.2,30.10,SE,137,0.0,0.0,90,0.00,,,0.00,Wunderground v.1.15,2013-12-20 02:02:00,
2013-12-19 20:07:00,60.0,57.4,30.10,East,95,0.0,0.0,91,0.00,,,0.00,Wunderground v.1.15,2013-12-20 02:07:00,
2013-12-19 20:17:00,60.0,57.4,30.10,ESE,109,0.0,1.0,91,0.00,,,0.00,Wunderground v.1.15,2013-12-20 02:17:00,
2013-12-19 20:27:00,60.0,57.4,30.10,ENE,72,0.0,0.0,91,0.00,,,0.00,Wunderground v.1.15,2013-12-20 02:27:00,
2013-12-19 20:37:00,59.9,57.3,30.10,ENE,73,0.0,1.0,91,0.00,,,0.00,Wunderground v.1.15,2013-12-20 02:37:00,
2013-12-19 20:47:00,59.8,57.5,30.09,ENE,61,0.0,0.0,92,0.00,,,0.00,Wunderground v.1.15,2013-12-20 02:47:00,
2013-12-19 20:57:00,59.8,57.5,30.09,SE,138,0.0,0.0,92,0.00,,,0.00,Wunderground v.1.15,2013-12-20 02:57:00,
2013-12-19 21:02:00,59.8,57.5,30.09,East,100,0.0,1.0,92,0.00,,,0.00,Wunderground v.1.15,2013-12-20 03:02:00,
2013-12-19 21:12:00,59.7,57.7,30.09,ESE,109,0.0,0.0,93,0.00,,,0.00,Wunderground v.1.15,2013-12-20 03:12:00,
2013-12-19 21:17:00,59.7,57.7,30.08,ESE,107,0.0,0.0,93,0.00,,,0.00,Wunderground v.1.15,2013-12-20 03:17:00,
2013-12-19 21:22:00,59.6,57.6,30.08,ESE,122,0.0,3.0,93,0.00,,,0.00,Wunderground v.1.15,2013-12-20 03:22:00,
2013-12-19 21:27:00,59.7,57.7,30.08,SE,130,1.0,3.0,93,0.00,,,0.00,Wunderground v.1.15,2013-12-20 03:27:00,
2013-12-19 21:37:00,59.9,57.9,30.08,ESE,103,0.0,3.0,93,0.00,,,0.00,Wunderground v.1.15,2013-12-20 03:37:00,
2013-12-19 21:42:00,60.1,58.1,30.08,East,82,1.0,1.0,93,0.00,,,0.00,Wunderground v.1.15,2013-12-20 03:42:00,
2013-12-19 21:52:00,60.2,58.2,30.08,ENE,75,0.0,0.0,93,0.00,,,0.00,Wunderground v.1.15,2013-12-20 03:52:00,
2013-12-19 21:57:00,60.2,58.2,30.08,ESE,111,0.0,0.0,93,0.00,,,0.00,Wunderground v.1.15,2013-12-20 03:57:00,
2013-12-19 22:07:00,60.2,58.2,30.08,SSE,149,0.0,0.0,93,0.00,,,0.00,Wunderground v.1.15,2013-12-20 04:07:00,
2013-12-19 22:12:00,60.2,58.2,30.08,SSE,153,0.0,0.0,93,0.00,,,0.00,Wunderground v.1.15,2013-12-20 04:12:00,
2013-12-19 22:17:00,60.2,58.2,30.08,SE,146,0.0,0.0,93,0.00,,,0.00,Wunderground v.1.15,2013-12-20 04:17:00,
2013-12-19 22:22:00,60.3,58.3,30.08,SE,142,0.0,1.0,93,0.00,,,0.00,Wunderground v.1.15,2013-12-20 04:22:00,
2013-12-19 22:27:00,60.4,58.4,30.08,ESE,117,0.0,1.0,93,0.00,,,0.00,Wunderground v.1.15,2013-12-20 04:27:00,
2013-12-19 22:32:00,60.4,58.4,30.08,East,99,0.0,0.0,93,0.00,,,0.00,Wunderground v.1.15,2013-12-20 04:32:00,
2013-12-19 22:42:00,60.4,58.4,30.07,East,91,0.0,1.0,93,0.00,,,0.00,Wunderground v.1.15,2013-12-20 04:42:00,
2013-12-19 22:52:00,60.5,58.5,30.07,ESE,115,1.0,1.0,93,0.00,,,0.00,Wunderground v.1.15,2013-12-20 04:52:00,
2013-12-19 22:57:00,60.6,58.9,30.07,East,95,0.0,1.0,94,0.00,,,0.00,Wunderground v.1.15,2013-12-20 04:57:00,
2013-12-19 23:02:00,60.6,58.9,30.06,SE,128,0.0,0.0,94,0.00,,,0.00,Wunderground v.1.15,2013-12-20 05:02:00,
2013-12-19 23:07:00,60.6,58.9,30.06,ESE,106,0.0,0.0,94,0.00,,,0.00,Wunderground v.1.15,2013-12-20 05:07:00,
2013-12-19 23:12:00,60.7,59.0,30.06,East,93,1.0,1.0,94,0.00,,,0.00,Wunderground v.1.15,2013-12-20 05:12:00,
2013-12-19 23:17:00,60.8,59.1,30.06,SE,130,1.0,1.0,94,0.00,,,0.00,Wunderground v.1.15,2013-12-20 05:17:00,
2013-12-19 23:22:00,60.8,59.1,30.06,ESE,123,0.0,0.0,94,0.00,,,0.00,Wunderground v.1.15,2013-12-20 05:22:00,
2013-12-19 23:28:00,60.8,59.1,30.06,ESE,109,0.0,0.0,94,0.00,,,0.00,Wunderground v.1.15,2013-12-20 05:28:00,
2013-12-19 23:33:00,60.7,59.0,30.06,SE,146,0.0,0.0,94,0.00,,,0.00,Wunderground v.1.15,2013-12-20 05:33:00,
2013-12-19 23:43:00,60.7,59.0,30.06,ESE,119,0.0,0.0,94,0.00,,,0.00,Wunderground v.1.15,2013-12-20 05:43:00,
2013-12-19 23:53:00,60.7,59.0,30.06,ESE,122,0.0,0.0,94,0.00,,,0.00,Wunderground v.1.15,2013-12-20 05:53:00,
2013-12-19 23:58:00,60.5,58.8,30.05,SE,126,0.0,0.0,94,0.00,,,0.00,Wunderground v.1.15,2013-12-20 05:58:00,